KDPG/DPG METAR and TAF weather

Enter ICAO airport designator
Station Type Date Time Source
KDPG METAR 2020/01/16 22:53 UTC NOAA

KDPG 162253Z 18015G22KT 25SM SCT180 BKN220 12/M06 A2981 RMK PK WND 17029/2155 SLP089 T01171064 LAST


Station Type Date Time Source
KDPG Decoded METAR 2020/01/16 22:53 UTC NOAA

Dugway Proving Grounds, UT, United States (KDPG) 40-10N 112-56W 1325M
Jan 16, 2020 - 05:53 PM EST / 2020.01.16 2253 UTC
Wind: from the S (180 degrees) at 17 MPH (15 KT) gusting to 25 MPH (22 KT):0
Visibility: 25 mile(s):0
Sky conditions: mostly cloudy
Temperature: 53.1 F (11.7 C)
Dew Point: 20.5 F (-6.4 C)
Relative Humidity: 27%
Pressure (altimeter): 29.81 in. Hg (1009 hPa)
ob: KDPG 162253Z 18015G22KT 25SM SCT180 BKN220 12/M06 A2981 RMK PK WND 17029/2155 SLP089 T01171064 LAST
cycle: 23

Station Type Date Time Source
KDPG TAF UTC NOAA

Error!

Example: see airport list